createdAt,value
2023-02-14T00:00:15.249Z,14.50
2023-02-14T00:01:17.007Z,14.45
2023-02-14T00:02:20.300Z,13.85
2023-02-14T00:03:21.992Z,13.73
2023-02-14T00:04:25.065Z,13.95
2023-02-14T00:05:26.750Z,13.25
2023-02-14T00:06:32.689Z,14.00
2023-02-14T00:07:35.278Z,12.85
2023-02-14T00:08:37.086Z,12.40
2023-02-14T00:09:39.621Z,13.63
2023-02-14T00:10:44.154Z,13.00
2023-02-14T00:11:48.081Z,12.27
2023-02-14T00:12:49.736Z,12.52
2023-02-14T00:14:06.468Z,12.27
2023-02-14T00:15:25.708Z,12.68
2023-02-14T00:16:27.315Z,12.48
2023-02-14T00:17:29.052Z,13.57
2023-02-14T00:18:45.566Z,11.98
2023-02-14T00:19:48.460Z,13.23
2023-02-14T00:20:50.045Z,13.75
2023-02-14T00:21:52.711Z,12.60
2023-02-14T00:22:55.722Z,12.45
2023-02-14T00:23:57.426Z,12.77
2023-02-14T00:24:59.967Z,12.20
2023-02-14T00:26:01.726Z,12.18
2023-02-14T00:27:05.682Z,11.43
2023-02-14T00:28:07.349Z,11.40
2023-02-14T00:29:12.070Z,11.57
2023-02-14T00:30:14.147Z,10.57
2023-02-14T00:31:16.924Z,11.10
2023-02-14T00:32:18.591Z,12.45
2023-02-14T00:33:21.159Z,11.45
2023-02-14T00:34:22.818Z,11.85
2023-02-14T00:35:25.346Z,10.88
2023-02-14T00:36:27.180Z,11.38
2023-02-14T00:37:29.726Z,11.55
2023-02-14T00:38:31.292Z,11.48
2023-02-14T00:39:33.835Z,10.95
2023-02-14T00:40:35.776Z,11.25
2023-02-14T00:41:38.781Z,10.93
2023-02-14T00:42:41.992Z,11.10
2023-02-14T00:43:44.500Z,11.70
2023-02-14T00:44:46.280Z,11.82
2023-02-14T00:45:49.555Z,11.38
2023-02-14T00:46:51.182Z,10.75
2023-02-14T00:47:53.778Z,11.63
2023-02-14T00:48:55.466Z,12.18
2023-02-14T00:50:02.751Z,12.40
2023-02-14T00:51:04.683Z,11.68
2023-02-14T00:52:07.210Z,11.13
2023-02-14T00:53:08.791Z,11.73
2023-02-14T00:54:11.544Z,11.00
2023-02-14T00:55:13.135Z,11.00
2023-02-14T00:56:16.270Z,10.63
2023-02-14T00:57:17.935Z,9.65
2023-02-14T00:58:22.103Z,10.85
2023-02-14T00:59:23.684Z,9.85
2023-02-14T01:00:26.462Z,10.48
2023-02-14T01:01:28.181Z,10.20
2023-02-14T01:02:30.745Z,10.48
2023-02-14T01:03:32.662Z,9.20
2023-02-14T01:04:35.988Z,9.68
2023-02-14T01:05:37.543Z,9.68
2023-02-14T01:06:40.127Z,9.85
2023-02-14T01:07:41.680Z,10.20
2023-02-14T01:08:44.652Z,9.77
2023-02-14T01:09:47.433Z,9.30
2023-02-14T01:10:49.029Z,9.50
2023-02-14T01:11:51.607Z,9.73
2023-02-14T01:12:53.351Z,10.25
2023-02-14T01:13:59.492Z,9.05
2023-02-14T01:15:01.053Z,9.48
2023-02-14T01:16:07.842Z,9.48
2023-02-14T01:17:09.464Z,10.50
2023-02-14T01:18:12.214Z,9.63
2023-02-14T01:19:14.315Z,9.80
2023-02-14T01:20:17.148Z,9.35
2023-02-14T01:21:20.807Z,9.93
2023-02-14T01:22:23.464Z,10.65
2023-02-14T01:23:25.459Z,10.18
2023-02-14T01:24:29.700Z,12.05
2023-02-14T01:25:31.825Z,11.88
2023-02-14T01:26:35.936Z,10.68
2023-02-14T01:27:37.704Z,11.30
2023-02-14T01:28:40.326Z,11.30
2023-02-14T01:29:44.359Z,11.48
2023-02-14T01:30:45.952Z,12.32
2023-02-14T01:31:49.421Z,12.15
2023-02-14T01:32:51.059Z,11.45
2023-02-14T01:33:54.656Z,11.90
2023-02-14T01:34:56.245Z,12.65
2023-02-14T01:36:00.676Z,12.23
2023-02-14T01:37:03.498Z,12.40
2023-02-14T01:38:05.037Z,12.65
2023-02-14T01:39:10.140Z,12.85
2023-02-14T01:40:13.947Z,12.15
2023-02-14T01:41:16.587Z,11.50
2023-02-14T01:42:18.244Z,12.15
2023-02-14T01:43:20.929Z,11.65
2023-02-14T01:45:07.527Z,11.70
2023-02-14T01:46:10.919Z,12.02
2023-02-14T01:47:13.665Z,12.13
2023-02-14T01:48:17.253Z,11.63
2023-02-14T01:49:25.692Z,12.15
2023-02-14T01:50:34.242Z,12.43
2023-02-14T01:51:39.546Z,12.27
2023-02-14T01:52:49.403Z,13.15
2023-02-14T01:53:53.324Z,10.30
2023-02-14T01:54:58.402Z,13.65
2023-02-14T01:56:04.694Z,13.10
2023-02-14T01:57:09.749Z,13.13
2023-02-14T01:58:16.442Z,13.30
2023-02-14T01:59:21.182Z,12.55
2023-02-14T02:00:45.354Z,13.15
2023-02-14T02:01:56.975Z,13.20
2023-02-14T02:03:00.009Z,12.85
2023-02-14T02:04:08.227Z,13.43
2023-02-14T02:05:10.201Z,12.82
2023-02-14T02:06:17.630Z,12.43
2023-02-14T02:07:23.740Z,12.65
2023-02-14T02:08:27.349Z,12.82
2023-02-14T02:09:35.606Z,12.77
2023-02-14T02:10:37.223Z,12.30
2023-02-14T02:11:40.168Z,12.75
2023-02-14T02:12:42.216Z,12.80
2023-02-14T02:13:44.778Z,11.82
2023-02-14T02:14:50.900Z,12.20
2023-02-14T02:16:07.980Z,11.73
2023-02-14T02:17:26.335Z,11.68
2023-02-14T02:18:42.070Z,12.50
2023-02-14T02:20:25.636Z,11.57
2023-02-14T02:22:05.438Z,12.00
2023-02-14T02:23:33.355Z,12.10
2023-02-14T02:24:48.447Z,11.70
2023-02-14T02:26:22.360Z,12.23
2023-02-14T02:27:39.597Z,11.95
2023-02-14T02:29:08.810Z,12.32
2023-02-14T02:30:54.108Z,11.82
2023-02-14T02:32:26.538Z,11.30
2023-02-14T02:34:03.758Z,11.57
2023-02-14T02:35:40.814Z,11.25
2023-02-14T02:37:04.889Z,11.30
2023-02-14T02:38:23.248Z,11.43
2023-02-14T02:39:41.003Z,11.90
2023-02-14T02:40:52.628Z,12.80
2023-02-14T02:42:13.150Z,11.90
2023-02-14T02:43:27.533Z,9.13
2023-02-14T02:44:40.837Z,10.95
2023-02-14T02:46:08.377Z,11.10
2023-02-14T02:47:20.370Z,10.77
2023-02-14T02:48:26.213Z,11.93
2023-02-14T02:49:54.970Z,10.98
2023-02-14T02:51:17.547Z,11.05
2023-02-14T02:52:44.812Z,10.77
2023-02-14T02:53:54.094Z,10.60
2023-02-14T02:55:01.010Z,10.95
2023-02-14T02:56:26.624Z,10.30
2023-02-14T02:57:34.674Z,9.95
2023-02-14T02:58:40.199Z,11.10
2023-02-14T02:59:47.176Z,11.38
2023-02-14T03:00:52.058Z,10.40
2023-02-14T03:02:00.697Z,10.68
2023-02-14T03:03:20.991Z,10.18
2023-02-14T03:04:41.879Z,7.88
2023-02-14T03:05:44.039Z,11.00
2023-02-14T03:06:49.050Z,10.93
2023-02-14T03:07:51.016Z,10.63
2023-02-14T03:08:55.251Z,10.85
2023-02-14T03:09:58.970Z,11.10
2023-02-14T03:11:04.125Z,10.48
2023-02-14T03:12:20.002Z,10.68
2023-02-14T03:13:58.480Z,10.30
2023-02-14T03:15:08.595Z,10.70
2023-02-14T03:16:28.283Z,8.18
2023-02-14T03:17:39.962Z,10.98
2023-02-14T03:18:59.046Z,10.75
2023-02-14T03:20:14.540Z,10.38
2023-02-14T03:21:26.005Z,11.07
2023-02-14T03:22:43.746Z,10.65
2023-02-14T03:23:53.842Z,11.13
2023-02-14T03:24:58.436Z,8.13
2023-02-14T03:26:12.647Z,10.25
2023-02-14T03:27:20.986Z,10.40
2023-02-14T03:28:31.056Z,10.82
2023-02-14T03:29:44.631Z,10.95
2023-02-14T03:30:53.839Z,11.43
2023-02-14T03:32:01.158Z,11.20
2023-02-14T03:33:08.055Z,11.23
2023-02-14T03:34:15.424Z,10.85
2023-02-14T03:35:23.958Z,10.93
2023-02-14T03:36:31.736Z,10.30
2023-02-14T03:37:41.653Z,10.70
2023-02-14T03:38:48.570Z,8.73
2023-02-14T03:39:59.584Z,10.80
2023-02-14T03:41:05.486Z,10.45
2023-02-14T03:42:12.603Z,11.13
2023-02-14T03:43:19.888Z,10.90
2023-02-14T03:44:25.846Z,9.75
2023-02-14T03:45:33.590Z,10.00
2023-02-14T03:46:40.731Z,9.75
2023-02-14T03:47:46.029Z,9.68
2023-02-14T03:48:51.573Z,9.55
2023-02-14T03:49:59.142Z,9.45
2023-02-14T03:51:02.819Z,10.43
2023-02-14T03:52:08.169Z,9.65
2023-02-14T03:53:13.457Z,9.43
2023-02-14T03:54:17.457Z,9.65
2023-02-14T03:55:25.034Z,9.23
2023-02-14T03:56:33.821Z,9.77
2023-02-14T03:57:40.289Z,9.20
2023-02-14T03:58:47.851Z,10.38
2023-02-14T03:59:50.080Z,9.13
2023-02-14T04:00:57.282Z,9.75
2023-02-14T04:02:06.156Z,8.98
2023-02-14T04:03:12.847Z,9.27
2023-02-14T04:04:15.964Z,9.25
2023-02-14T04:05:22.439Z,9.23
2023-02-14T04:06:24.106Z,9.38
2023-02-14T04:07:26.773Z,9.40
2023-02-14T04:08:30.318Z,9.70
2023-02-14T04:09:32.839Z,9.02
2023-02-14T04:10:34.378Z,9.15
2023-02-14T04:11:38.534Z,9.18
2023-02-14T04:12:40.122Z,9.95
2023-02-14T04:13:42.645Z,9.30
2023-02-14T04:14:44.343Z,9.38
2023-02-14T04:15:47.060Z,9.63
2023-02-14T04:17:03.597Z,9.45
2023-02-14T04:18:29.081Z,9.00
2023-02-14T04:19:30.632Z,9.07
2023-02-14T04:20:34.079Z,9.90
2023-02-14T04:21:35.664Z,9.20
2023-02-14T04:22:38.229Z,9.40
2023-02-14T04:23:41.148Z,9.52
2023-02-14T04:24:43.951Z,9.75
2023-02-14T04:25:46.529Z,9.27
2023-02-14T04:27:10.579Z,9.38
2023-02-14T04:28:14.040Z,9.10
2023-02-14T04:29:15.585Z,9.27
2023-02-14T04:30:20.960Z,8.65
2023-02-14T04:31:22.826Z,9.50
2023-02-14T04:32:25.603Z,9.10
2023-02-14T04:33:27.254Z,9.43
2023-02-14T04:34:29.872Z,9.32
2023-02-14T04:35:31.569Z,9.27
2023-02-14T04:36:34.163Z,8.48
2023-02-14T04:37:35.786Z,9.25
2023-02-14T04:38:38.722Z,8.23
2023-02-14T04:39:41.660Z,8.88
2023-02-14T04:40:45.267Z,8.35
2023-02-14T04:41:46.917Z,8.40
2023-02-14T04:42:49.647Z,8.60
2023-02-14T04:43:51.339Z,8.95
2023-02-14T04:44:53.988Z,8.75
2023-02-14T04:45:55.900Z,8.80
2023-02-14T04:47:00.339Z,8.32
2023-02-14T04:48:04.337Z,8.73
2023-02-14T04:49:06.857Z,8.82
2023-02-14T04:50:11.914Z,8.93
2023-02-14T04:51:13.663Z,8.15
2023-02-14T04:52:16.654Z,8.13
2023-02-14T04:53:19.482Z,9.07
2023-02-14T04:54:22.068Z,9.63
2023-02-14T04:55:26.355Z,8.85
2023-02-14T04:56:29.211Z,8.75
2023-02-14T04:57:32.312Z,9.20
2023-02-14T04:58:33.999Z,9.20
2023-02-14T04:59:36.630Z,9.00
2023-02-14T05:00:38.213Z,7.85
2023-02-14T05:01:40.923Z,8.48
2023-02-14T05:02:42.474Z,8.30
2023-02-14T05:03:45.078Z,7.93
2023-02-14T05:04:49.901Z,8.20
2023-02-14T05:05:51.757Z,8.10
2023-02-14T05:06:54.313Z,8.20
2023-02-14T05:07:56.203Z,8.73
2023-02-14T05:08:58.846Z,8.23
2023-02-14T05:10:00.435Z,8.52
2023-02-14T05:11:04.398Z,9.02
2023-02-14T05:12:07.484Z,8.80
2023-02-14T05:13:09.170Z,7.55
2023-02-14T05:14:11.805Z,9.10
2023-02-14T05:15:13.396Z,8.32
2023-02-14T05:16:15.967Z,8.98
2023-02-14T05:17:17.892Z,8.18
2023-02-14T05:18:20.418Z,9.15
2023-02-14T05:19:22.274Z,8.95
2023-02-14T05:20:24.755Z,9.07
2023-02-14T05:21:28.501Z,8.60
2023-02-14T05:22:30.089Z,8.88
2023-02-14T05:23:32.656Z,8.40
2023-02-14T05:24:34.206Z,7.82
2023-02-14T05:25:36.676Z,8.55
2023-02-14T05:26:41.195Z,8.85
2023-02-14T05:27:43.692Z,8.60
2023-02-14T05:28:45.367Z,8.68
2023-02-14T05:29:48.186Z,8.85
2023-02-14T05:30:50.897Z,8.40
2023-02-14T05:31:53.660Z,8.80
2023-02-14T05:32:55.456Z,8.65
2023-02-14T05:33:59.103Z,8.32
2023-02-14T05:35:13.151Z,8.60
2023-02-14T05:36:14.816Z,9.18
2023-02-14T05:37:20.230Z,8.35
2023-02-14T05:38:21.955Z,9.18
2023-02-14T05:39:24.613Z,8.77
2023-02-14T05:40:26.721Z,8.85
2023-02-14T05:41:29.498Z,8.65
2023-02-14T05:42:32.440Z,8.82
2023-02-14T05:43:39.052Z,8.32
2023-02-14T05:44:40.672Z,8.93
2023-02-14T05:45:43.261Z,8.38
2023-02-14T05:46:45.053Z,8.60
2023-02-14T05:47:49.647Z,8.18
2023-02-14T05:48:51.271Z,8.85
2023-02-14T05:49:53.787Z,8.75
2023-02-14T05:50:55.388Z,8.10
2023-02-14T05:51:57.929Z,8.68
2023-02-14T05:53:00.941Z,7.97
2023-02-14T05:54:05.001Z,8.80
2023-02-14T05:55:07.876Z,8.48
2023-02-14T05:56:10.882Z,8.88
2023-02-14T05:57:12.499Z,8.65
2023-02-14T05:58:16.313Z,8.23
2023-02-14T05:59:17.854Z,7.88
2023-02-14T06:00:24.143Z,8.35
2023-02-14T06:01:25.879Z,8.40
2023-02-14T06:02:28.719Z,8.25
2023-02-14T06:03:30.316Z,8.40
2023-02-14T06:04:32.886Z,8.70
2023-02-14T06:05:34.637Z,8.52
2023-02-14T06:06:37.271Z,8.70
2023-02-14T06:07:38.875Z,8.55
2023-02-14T06:08:41.491Z,7.72
2023-02-14T06:09:43.270Z,8.82
2023-02-14T06:10:45.773Z,8.32
2023-02-14T06:11:48.284Z,8.63
2023-02-14T06:12:51.385Z,8.18
2023-02-14T06:13:55.320Z,8.73
2023-02-14T06:14:56.884Z,9.45
2023-02-14T06:15:59.894Z,8.52
2023-02-14T06:17:02.496Z,8.43
2023-02-14T06:18:05.389Z,8.38
2023-02-14T06:19:08.008Z,8.43
2023-02-14T06:20:10.507Z,9.30
2023-02-14T06:21:13.104Z,8.30
2023-02-14T06:22:14.768Z,8.23
2023-02-14T06:23:17.661Z,8.68
2023-02-14T06:24:19.524Z,8.70
2023-02-14T06:25:23.067Z,8.30
2023-02-14T06:26:27.961Z,8.63
2023-02-14T06:27:30.663Z,8.32
2023-02-14T06:28:33.553Z,8.45
2023-02-14T06:29:37.583Z,8.30
2023-02-14T06:30:40.388Z,8.20
2023-02-14T06:31:42.441Z,8.38
2023-02-14T06:32:45.873Z,8.63
2023-02-14T06:33:48.698Z,8.35
2023-02-14T06:34:50.399Z,8.50
2023-02-14T06:35:54.691Z,8.85
2023-02-14T06:36:56.466Z,9.38
2023-02-14T06:37:59.023Z,8.65
2023-02-14T06:39:01.043Z,9.23
2023-02-14T06:40:03.633Z,8.90
2023-02-14T06:41:07.206Z,8.38
2023-02-14T06:42:08.958Z,7.85
2023-02-14T06:43:11.771Z,8.25
2023-02-14T06:44:13.329Z,8.75
2023-02-14T06:45:17.279Z,8.68
2023-02-14T06:46:19.164Z,8.30
2023-02-14T06:47:21.812Z,8.80
2023-02-14T06:48:23.844Z,9.02
2023-02-14T06:49:26.522Z,8.52
2023-02-14T06:50:29.152Z,8.93
2023-02-14T06:51:30.848Z,8.82
2023-02-14T06:52:33.973Z,8.35
2023-02-14T06:53:38.058Z,9.23
2023-02-14T06:54:43.463Z,7.70
2023-02-14T06:55:45.663Z,8.30
2023-02-14T06:56:48.215Z,8.20
2023-02-14T06:57:50.830Z,8.75
2023-02-14T06:58:53.654Z,8.40
2023-02-14T06:59:55.423Z,8.75
2023-02-14T07:01:00.433Z,8.55
2023-02-14T07:02:02.317Z,8.23
2023-02-14T07:03:04.966Z,8.93
2023-02-14T07:04:06.643Z,9.02
2023-02-14T07:05:09.889Z,8.50
2023-02-14T07:06:12.549Z,8.48
2023-02-14T07:07:15.194Z,9.00
2023-02-14T07:08:17.747Z,9.05
2023-02-14T07:09:22.003Z,8.55
2023-02-14T07:10:24.628Z,8.68
2023-02-14T07:11:28.652Z,8.75
2023-02-14T07:12:31.384Z,8.38
2023-02-14T07:13:33.043Z,7.97
2023-02-14T07:14:37.946Z,8.60
2023-02-14T07:15:40.824Z,8.48
2023-02-14T07:16:43.883Z,8.15
2023-02-14T07:17:47.127Z,8.77
2023-02-14T07:18:49.344Z,8.73
2023-02-14T07:19:55.747Z,8.32
2023-02-14T07:20:58.992Z,8.65
2023-02-14T07:22:01.872Z,8.77
2023-02-14T07:23:05.236Z,9.07
2023-02-14T07:24:08.059Z,8.55
2023-02-14T07:25:09.740Z,8.07
2023-02-14T07:26:12.414Z,8.48
2023-02-14T07:27:14.196Z,9.13
2023-02-14T07:28:16.959Z,8.02
2023-02-14T07:29:19.943Z,8.55
2023-02-14T07:30:23.183Z,8.63
2023-02-14T07:31:26.028Z,8.60
2023-02-14T07:32:29.127Z,8.88
2023-02-14T07:33:31.674Z,8.10
2023-02-14T07:34:34.336Z,9.10
2023-02-14T07:35:36.154Z,9.23
2023-02-14T07:36:38.913Z,9.00
2023-02-14T07:37:40.512Z,8.15
2023-02-14T07:38:43.247Z,8.88
2023-02-14T07:39:46.057Z,7.85
2023-02-14T07:40:50.700Z,8.48
2023-02-14T07:41:52.475Z,7.63
2023-02-14T07:42:56.008Z,8.55
2023-02-14T07:43:57.618Z,8.73
2023-02-14T07:45:03.138Z,8.80
2023-02-14T07:46:06.801Z,8.48
2023-02-14T07:47:10.840Z,8.35
2023-02-14T07:48:15.222Z,8.50
2023-02-14T07:49:17.990Z,8.75
2023-02-14T07:50:23.383Z,8.95
2023-02-14T07:51:27.255Z,8.32
2023-02-14T07:52:28.878Z,9.05
2023-02-14T07:53:31.735Z,8.73
2023-02-14T07:54:33.544Z,7.88
2023-02-14T07:55:36.440Z,8.80
2023-02-14T07:56:38.980Z,8.55
2023-02-14T07:57:40.893Z,8.80
2023-02-14T07:58:43.485Z,8.73
2023-02-14T07:59:46.006Z,9.15
2023-02-14T08:00:48.596Z,8.88
2023-02-14T08:01:50.205Z,8.15
2023-02-14T08:02:52.900Z,8.80
2023-02-14T08:03:57.172Z,8.40
2023-02-14T08:04:58.953Z,8.27
2023-02-14T08:06:01.630Z,8.73
2023-02-14T08:07:03.482Z,7.75
2023-02-14T08:08:06.073Z,8.40
2023-02-14T08:09:10.173Z,8.90
2023-02-14T08:10:13.372Z,8.32
2023-02-14T08:11:37.245Z,8.35
2023-02-14T08:12:57.662Z,8.23
2023-02-14T08:14:00.331Z,8.30
2023-02-14T08:15:16.828Z,8.50
2023-02-14T08:16:19.683Z,8.07
2023-02-14T08:17:21.486Z,7.97
2023-02-14T08:18:24.189Z,7.80
2023-02-14T08:19:30.581Z,8.85
2023-02-14T08:20:32.282Z,8.27
2023-02-14T08:21:35.610Z,8.13
2023-02-14T08:22:37.215Z,8.45
2023-02-14T08:23:40.592Z,7.78
2023-02-14T08:24:42.466Z,8.90
2023-02-14T08:25:45.157Z,7.50
2023-02-14T08:26:47.889Z,8.57
2023-02-14T08:27:49.574Z,8.20
2023-02-14T08:28:52.351Z,8.07
2023-02-14T08:29:54.083Z,7.97
2023-02-14T08:30:56.913Z,7.93
2023-02-14T08:32:00.576Z,7.82
2023-02-14T08:33:03.310Z,7.80
2023-02-14T08:34:05.895Z,8.38
2023-02-14T08:35:09.335Z,8.10
2023-02-14T08:36:12.043Z,8.32
2023-02-14T08:37:13.893Z,7.95
2023-02-14T08:38:17.990Z,8.57
2023-02-14T08:39:20.863Z,8.20
2023-02-14T08:40:22.612Z,8.38
2023-02-14T08:41:25.704Z,9.48
2023-02-14T08:42:27.462Z,8.88
2023-02-14T08:43:30.214Z,8.35
2023-02-14T08:44:33.602Z,8.65
2023-02-14T08:45:36.423Z,9.00
2023-02-14T08:46:39.107Z,8.90
2023-02-14T08:47:40.918Z,8.63
2023-02-14T08:48:44.393Z,8.45
2023-02-14T08:49:47.056Z,8.40
2023-02-14T08:50:51.197Z,8.43
2023-02-14T08:51:54.558Z,8.70
2023-02-14T08:52:57.260Z,8.63
2023-02-14T08:53:59.829Z,8.25
2023-02-14T08:55:02.524Z,8.80
2023-02-14T08:56:05.641Z,8.45
2023-02-14T08:57:07.527Z,9.18
2023-02-14T08:58:10.262Z,9.07
2023-02-14T08:59:15.680Z,9.93
2023-02-14T09:00:18.872Z,9.40
2023-02-14T09:01:22.071Z,8.27
2023-02-14T09:02:25.333Z,9.90
2023-02-14T09:03:26.840Z,9.48
2023-02-14T09:04:29.617Z,9.90
2023-02-14T09:05:32.538Z,8.98
2023-02-14T09:06:38.613Z,8.95
2023-02-14T09:07:41.496Z,8.68
2023-02-14T09:08:44.393Z,8.90
2023-02-14T09:09:47.167Z,9.18
2023-02-14T09:10:49.757Z,9.40
2023-02-14T09:11:52.334Z,8.23
2023-02-14T09:12:55.091Z,9.38
2023-02-14T09:13:57.825Z,9.63
2023-02-14T09:15:00.331Z,8.75
2023-02-14T09:16:05.023Z,9.43
2023-02-14T09:17:08.255Z,9.07
2023-02-14T09:18:10.997Z,8.88
2023-02-14T09:19:14.927Z,9.05
2023-02-14T09:20:17.802Z,8.65
2023-02-14T09:21:24.051Z,9.65
2023-02-14T09:22:28.643Z,9.45
2023-02-14T09:23:30.323Z,9.00
2023-02-14T09:24:34.502Z,8.70
2023-02-14T09:25:37.266Z,8.77
2023-02-14T09:26:42.100Z,10.30
2023-02-14T09:27:44.672Z,9.32
2023-02-14T09:28:47.632Z,8.48
2023-02-14T09:29:50.138Z,8.85
2023-02-14T09:30:54.067Z,9.50
2023-02-14T09:31:59.739Z,9.48
2023-02-14T09:33:05.460Z,8.57
2023-02-14T09:34:08.122Z,8.77
2023-02-14T09:35:27.967Z,9.40
2023-02-14T09:36:48.460Z,9.13
2023-02-14T09:38:10.105Z,9.23
2023-02-14T09:39:12.908Z,8.63
2023-02-14T09:40:17.861Z,9.25
2023-02-14T09:41:49.973Z,9.30
2023-02-14T09:43:02.295Z,8.50
2023-02-14T09:44:08.152Z,9.23
2023-02-14T09:45:14.388Z,9.10
2023-02-14T09:46:18.968Z,10.05
2023-02-14T09:47:26.943Z,9.65
2023-02-14T09:48:36.323Z,9.52
2023-02-14T09:49:39.890Z,9.05
2023-02-14T09:50:46.830Z,9.32
2023-02-14T09:51:53.313Z,9.18
2023-02-14T09:53:01.533Z,8.68
2023-02-14T09:54:12.066Z,8.75
2023-02-14T09:55:17.316Z,8.63
2023-02-14T09:56:26.714Z,8.68
2023-02-14T09:57:40.888Z,8.40
2023-02-14T09:58:51.323Z,8.82
2023-02-14T09:59:57.877Z,6.68
2023-02-14T10:01:06.357Z,9.02
2023-02-14T10:02:34.861Z,8.70
2023-02-14T10:03:47.055Z,8.52
2023-02-14T10:05:05.709Z,8.70
2023-02-14T10:06:18.785Z,9.13
2023-02-14T10:07:32.275Z,9.63
2023-02-14T10:08:48.636Z,8.63
2023-02-14T10:09:58.174Z,9.02
2023-02-14T10:11:06.757Z,8.10
2023-02-14T10:12:14.413Z,8.65
2023-02-14T10:13:24.572Z,8.32
2023-02-14T10:14:29.907Z,8.32
2023-02-14T10:15:35.734Z,8.35
2023-02-14T10:16:42.660Z,8.55
2023-02-14T10:17:49.157Z,8.38
2023-02-14T10:18:55.421Z,7.97
2023-02-14T10:20:02.876Z,8.15
2023-02-14T10:21:08.896Z,7.95
2023-02-14T10:22:14.801Z,7.45
2023-02-14T10:23:31.312Z,8.05
2023-02-14T10:24:41.767Z,7.72
2023-02-14T10:25:49.778Z,7.70
2023-02-14T10:26:57.750Z,8.32
2023-02-14T10:28:03.101Z,8.00
2023-02-14T10:29:09.569Z,7.60
2023-02-14T10:30:17.338Z,8.00
2023-02-14T10:31:22.837Z,7.93
2023-02-14T10:32:32.951Z,7.63
2023-02-14T10:33:39.431Z,8.20
2023-02-14T10:34:47.874Z,8.35
2023-02-14T10:35:51.045Z,7.40
2023-02-14T10:37:05.210Z,7.43
2023-02-14T10:38:24.084Z,8.02
2023-02-14T10:39:48.866Z,7.38
2023-02-14T10:41:23.786Z,7.50
2023-02-14T10:42:34.224Z,7.68
2023-02-14T10:43:48.902Z,7.40
2023-02-14T10:45:00.556Z,6.90
2023-02-14T10:46:15.951Z,7.18
2023-02-14T10:47:34.170Z,6.93
2023-02-14T10:48:52.340Z,7.53
2023-02-14T10:50:06.570Z,7.00
2023-02-14T10:51:17.413Z,6.80
2023-02-14T10:53:37.178Z,7.63
2023-02-14T10:54:45.061Z,6.97
2023-02-14T10:55:54.998Z,6.22
2023-02-14T10:57:06.134Z,6.05
2023-02-14T10:58:15.537Z,7.03
2023-02-14T10:59:23.695Z,7.18
2023-02-14T11:00:29.560Z,7.22
2023-02-14T11:01:32.351Z,7.00
2023-02-14T11:02:37.985Z,6.70
2023-02-14T11:03:45.294Z,6.93
2023-02-14T11:04:49.399Z,6.68
2023-02-14T11:05:52.565Z,7.00
2023-02-14T11:06:54.486Z,6.50
2023-02-14T11:07:58.995Z,6.90
2023-02-14T11:09:01.887Z,7.15
2023-02-14T11:10:12.533Z,7.13
2023-02-14T11:11:20.464Z,6.93
2023-02-14T11:12:34.891Z,7.30
2023-02-14T11:13:39.382Z,6.95
2023-02-14T11:14:42.081Z,7.03
2023-02-14T11:15:49.318Z,7.13
2023-02-14T11:16:55.341Z,6.65
2023-02-14T11:18:18.034Z,6.68
2023-02-14T11:19:25.414Z,6.53
2023-02-14T11:20:31.035Z,6.70
2023-02-14T11:21:39.220Z,6.50
2023-02-14T11:22:41.806Z,6.20
2023-02-14T11:23:46.533Z,6.47
2023-02-14T11:24:49.238Z,6.53
2023-02-14T11:25:55.669Z,7.35
2023-02-14T11:27:00.774Z,7.30
2023-02-14T11:28:05.156Z,6.75
2023-02-14T11:29:14.413Z,7.10
2023-02-14T11:30:24.225Z,6.90
2023-02-14T11:31:30.028Z,6.97
2023-02-14T11:32:37.756Z,6.72
2023-02-14T11:33:44.239Z,6.80
2023-02-14T11:34:53.916Z,7.05
2023-02-14T11:35:57.548Z,7.28
2023-02-14T11:37:00.905Z,7.82
2023-02-14T11:38:05.798Z,7.80
2023-02-14T11:39:25.806Z,7.68
2023-02-14T11:40:31.056Z,7.65
2023-02-14T11:41:51.427Z,7.93
2023-02-14T11:43:02.155Z,8.02
2023-02-14T11:44:27.145Z,8.00
2023-02-14T11:45:33.844Z,7.72
2023-02-14T11:46:44.390Z,8.20
2023-02-14T11:48:10.416Z,8.18
2023-02-14T11:49:31.293Z,7.90
2023-02-14T11:50:33.293Z,7.97
2023-02-14T11:51:40.677Z,7.80
2023-02-14T11:52:51.434Z,7.90
2023-02-14T11:54:59.666Z,8.35
2023-02-14T11:56:04.056Z,8.32
2023-02-14T11:57:14.910Z,8.35
2023-02-14T11:58:32.395Z,7.85
2023-02-14T11:59:41.945Z,8.65
2023-02-14T12:00:51.954Z,8.25
2023-02-14T12:01:56.756Z,8.50
2023-02-14T12:03:01.988Z,8.45
2023-02-14T12:04:07.406Z,8.20
2023-02-14T12:05:20.703Z,8.00
2023-02-14T12:06:25.492Z,8.82
2023-02-14T12:07:31.984Z,8.93
2023-02-14T12:08:37.607Z,9.07
2023-02-14T12:09:41.517Z,8.85
2023-02-14T12:10:44.112Z,8.88
2023-02-14T12:11:56.513Z,9.40
2023-02-14T12:13:04.017Z,8.73
2023-02-14T12:14:07.221Z,9.05
2023-02-14T12:15:34.773Z,9.27
2023-02-14T12:16:47.376Z,10.18
2023-02-14T12:17:53.876Z,9.15
2023-02-14T12:19:01.159Z,9.48
2023-02-14T12:20:12.947Z,9.13
2023-02-14T12:21:26.877Z,8.75
2023-02-14T12:22:34.400Z,9.57
2023-02-14T12:23:47.524Z,11.10
2023-02-14T12:24:58.614Z,11.93
2023-02-14T12:26:07.362Z,11.40
2023-02-14T12:27:22.802Z,10.80
2023-02-14T12:28:31.819Z,11.43
2023-02-14T12:29:39.913Z,12.50
2023-02-14T12:30:42.922Z,11.57
2023-02-14T12:31:47.248Z,14.10
2023-02-14T12:32:51.538Z,14.07
2023-02-14T12:33:54.612Z,12.25
2023-02-14T12:35:03.191Z,13.73
2023-02-14T12:36:14.142Z,12.55
2023-02-14T12:37:27.501Z,11.27
2023-02-14T12:38:39.711Z,12.40
2023-02-14T12:39:59.935Z,12.70
2023-02-14T12:41:17.200Z,12.57
2023-02-14T12:42:35.096Z,12.15
2023-02-14T12:43:50.727Z,12.88
2023-02-14T12:45:04.815Z,13.68
2023-02-14T12:46:21.653Z,13.07
2023-02-14T12:47:34.750Z,12.88
2023-02-14T12:48:51.265Z,13.18
2023-02-14T12:50:33.740Z,13.20
2023-02-14T12:51:43.380Z,12.93
2023-02-14T12:52:56.222Z,12.20
2023-02-14T12:54:15.988Z,13.13
2023-02-14T12:55:48.366Z,12.95
2023-02-14T12:57:01.688Z,12.43
2023-02-14T12:58:19.342Z,11.40
2023-02-14T12:59:31.932Z,12.15
2023-02-14T13:00:47.779Z,11.35
2023-02-14T13:02:32.387Z,11.60
2023-02-14T13:03:59.746Z,11.10
2023-02-14T13:05:10.112Z,12.02
2023-02-14T13:06:19.596Z,11.70
2023-02-14T13:07:50.565Z,11.05
2023-02-14T13:10:14.978Z,10.20
2023-02-14T13:11:28.984Z,10.77
2023-02-14T13:12:38.417Z,10.52
2023-02-14T13:13:53.550Z,9.70
2023-02-14T13:15:07.810Z,10.20
2023-02-14T13:16:18.438Z,10.25
2023-02-14T13:18:40.725Z,9.80
2023-02-14T13:19:49.639Z,10.38
2023-02-14T13:20:54.477Z,9.77
2023-02-14T13:21:59.838Z,10.50
2023-02-14T13:23:12.015Z,9.95
2023-02-14T13:24:19.378Z,10.57
2023-02-14T13:25:31.887Z,10.45
2023-02-14T13:26:39.609Z,10.32
2023-02-14T13:27:42.835Z,9.90
2023-02-14T13:28:51.703Z,9.60
2023-02-14T13:29:58.127Z,9.73
2023-02-14T13:31:02.858Z,9.73
2023-02-14T13:32:06.575Z,9.10
2023-02-14T13:33:15.516Z,9.85
2023-02-14T13:34:25.455Z,9.50
2023-02-14T13:35:30.395Z,10.27
2023-02-14T13:36:33.878Z,10.30
2023-02-14T13:37:38.091Z,9.13
2023-02-14T13:38:45.861Z,10.32
2023-02-14T13:39:52.860Z,10.00
2023-02-14T13:40:56.498Z,10.18
2023-02-14T13:41:59.326Z,9.57
2023-02-14T13:43:02.009Z,9.27
2023-02-14T13:44:05.587Z,9.93
2023-02-14T13:45:53.840Z,9.73
2023-02-14T13:46:58.233Z,9.13
2023-02-14T13:48:04.824Z,10.02
2023-02-14T13:49:27.867Z,10.32
2023-02-14T13:50:29.609Z,9.98
2023-02-14T13:51:46.214Z,10.40
2023-02-14T13:52:50.090Z,10.15
2023-02-14T13:53:55.734Z,9.55
2023-02-14T13:55:03.271Z,10.07
2023-02-14T13:56:27.179Z,9.93
2023-02-14T13:57:34.070Z,10.63
2023-02-14T13:58:35.934Z,10.63
2023-02-14T13:59:38.815Z,11.40
2023-02-14T14:00:42.401Z,10.88
2023-02-14T14:01:50.087Z,11.02
2023-02-14T14:02:59.070Z,10.95
2023-02-14T14:04:04.317Z,10.70
2023-02-14T14:05:42.873Z,10.70
2023-02-14T14:07:16.337Z,9.80
2023-02-14T14:08:39.492Z,9.88
2023-02-14T14:09:59.570Z,9.75
2023-02-14T14:11:04.907Z,10.60
2023-02-14T14:12:38.550Z,9.65
2023-02-14T14:14:02.206Z,9.77
2023-02-14T14:15:19.319Z,10.18
2023-02-14T14:16:29.396Z,9.55
2023-02-14T14:17:33.659Z,10.05
2023-02-14T14:18:42.870Z,10.00
2023-02-14T14:19:47.126Z,9.80
2023-02-14T14:20:50.018Z,9.98
2023-02-14T14:22:02.008Z,9.70
2023-02-14T14:23:04.885Z,9.63
2023-02-14T14:24:23.007Z,9.63
2023-02-14T14:25:32.804Z,9.25
2023-02-14T14:26:36.924Z,8.67
2023-02-14T14:27:46.841Z,9.13
2023-02-14T14:28:48.721Z,8.43
2023-02-14T14:29:54.590Z,9.32
2023-02-14T14:30:57.351Z,9.00
2023-02-14T14:31:59.210Z,9.65
2023-02-14T14:33:14.360Z,9.30
2023-02-14T14:34:20.336Z,9.63
2023-02-14T14:35:25.186Z,9.05
2023-02-14T14:36:29.815Z,9.75
2023-02-14T14:37:34.207Z,8.48
2023-02-14T14:38:49.269Z,8.77
2023-02-14T14:39:52.283Z,9.55
2023-02-14T14:40:55.324Z,9.32
2023-02-14T14:42:07.376Z,8.05
2023-02-14T14:43:15.026Z,8.73
2023-02-14T14:44:18.424Z,8.85
2023-02-14T14:45:23.002Z,9.18
2023-02-14T14:46:25.774Z,8.52